createdAt,value
2019-04-13T00:01:07.845Z,98.40
2019-04-13T00:06:22.597Z,98.50
2019-04-13T00:11:34.439Z,98.50
2019-04-13T00:16:42.628Z,98.30
2019-04-13T00:21:46.695Z,98.70
2019-04-13T00:26:52.055Z,98.40
2019-04-13T00:31:56.627Z,98.20
2019-04-13T00:42:05.620Z,97.80
2019-04-13T00:47:09.862Z,97.90
2019-04-13T00:52:16.033Z,97.80
2019-04-13T00:57:20.843Z,97.80
2019-04-13T01:02:25.663Z,98.10
2019-04-13T01:07:29.824Z,97.80
2019-04-13T01:12:33.612Z,98.00
2019-04-13T01:17:37.862Z,97.80
2019-04-13T01:22:41.588Z,97.80
2019-04-13T01:27:47.591Z,97.50
2019-04-13T01:32:51.303Z,97.40
2019-04-13T01:37:55.044Z,96.10
2019-04-13T01:42:58.998Z,96.00
2019-04-13T01:48:02.730Z,95.70
2019-04-13T01:53:06.432Z,96.30
2019-04-13T01:58:10.151Z,96.50
2019-04-13T02:03:14.041Z,96.20
2019-04-13T02:08:32.787Z,95.90
2019-04-13T02:13:36.498Z,95.80
2019-04-13T02:18:40.235Z,95.50
2019-04-13T02:23:43.962Z,95.50
2019-04-13T02:28:47.683Z,95.40
2019-04-13T02:33:51.396Z,95.50
2019-04-13T02:38:55.182Z,95.40
2019-04-13T02:43:58.874Z,95.50
2019-04-13T02:49:02.599Z,95.30
2019-04-13T02:54:06.335Z,95.30
2019-04-13T02:59:10.114Z,95.20
2019-04-13T03:04:13.904Z,95.10
2019-04-13T03:09:17.636Z,95.10
2019-04-13T03:14:21.659Z,95.00
2019-04-13T03:19:44.319Z,95.00
2019-04-13T03:24:48.004Z,94.80
2019-04-13T03:29:51.763Z,95.00
2019-04-13T03:34:55.637Z,95.20
2019-04-13T03:39:59.352Z,95.30
2019-04-13T03:45:03.113Z,95.00
2019-04-13T03:50:07.094Z,95.50
2019-04-13T03:55:11.307Z,95.40
2019-04-13T04:00:15.321Z,95.40
2019-04-13T04:05:19.339Z,95.60
2019-04-13T04:10:23.039Z,95.50
2019-04-13T04:15:26.808Z,95.40
2019-04-13T04:20:30.606Z,95.20
2019-04-13T04:25:35.451Z,95.40
2019-04-13T04:30:39.150Z,95.20
2019-04-13T04:35:43.136Z,95.50
2019-04-13T04:40:46.911Z,95.20
2019-04-13T04:45:50.624Z,95.20
2019-04-13T04:50:54.608Z,95.30
2019-04-13T04:55:58.343Z,95.30
2019-04-13T05:01:02.377Z,95.50
2019-04-13T05:06:06.154Z,95.70
2019-04-13T05:11:11.242Z,95.30
2019-04-13T05:16:15.329Z,95.50
2019-04-13T05:21:19.319Z,95.20
2019-04-13T05:26:23.048Z,95.50
2019-04-13T05:31:26.767Z,95.10
2019-04-13T05:36:30.539Z,95.10
2019-04-13T05:41:34.279Z,95.40
2019-04-13T05:46:38.268Z,95.50
2019-04-13T05:51:42.010Z,94.90
2019-04-13T05:56:45.786Z,95.00
2019-04-13T06:01:50.033Z,95.10
2019-04-13T06:06:59.757Z,94.40
2019-04-13T06:12:00.059Z,95.30
2019-04-13T06:17:04.288Z,94.60
2019-04-13T06:22:08.592Z,95.30
2019-04-13T06:27:13.641Z,94.40
2019-04-13T06:32:35.272Z,94.90
2019-04-13T06:37:39.953Z,95.10
2019-04-13T06:42:44.023Z,94.50
2019-04-13T06:47:49.095Z,94.40
2019-04-13T06:52:53.283Z,94.30
2019-04-13T06:57:57.980Z,94.60
2019-04-13T07:03:02.474Z,94.70
2019-04-13T07:08:11.634Z,94.40
2019-04-13T07:13:23.056Z,93.80
2019-04-13T07:18:28.853Z,93.40
2019-04-13T07:23:34.068Z,93.20
2019-04-13T07:28:38.303Z,93.40
2019-04-13T07:33:43.984Z,92.60
2019-04-13T07:38:48.590Z,92.50
2019-04-13T07:43:52.435Z,92.50
2019-04-13T07:49:13.776Z,91.30
2019-04-13T07:54:15.150Z,91.50
2019-04-13T07:59:19.183Z,91.80
2019-04-13T08:04:23.052Z,91.50
2019-04-13T08:09:29.616Z,92.10
2019-04-13T08:14:33.908Z,91.40
2019-04-13T08:19:43.712Z,91.30
2019-04-13T08:24:48.673Z,90.40
2019-04-13T08:29:53.035Z,91.10
2019-04-13T08:34:59.848Z,91.20
2019-04-13T08:40:03.408Z,90.30
2019-04-13T08:45:12.365Z,90.20
2019-04-13T08:50:13.043Z,87.50
2019-04-13T08:55:18.411Z,81.50
2019-04-13T09:00:22.303Z,80.20
2019-04-13T09:05:26.450Z,81.60
2019-04-13T09:10:31.693Z,78.10
2019-04-13T09:15:35.828Z,74.20
2019-04-13T09:20:45.674Z,75.80
2019-04-13T09:25:49.740Z,78.20
2019-04-13T09:30:53.705Z,77.50
2019-04-13T09:35:57.595Z,79.70
2019-04-13T09:41:03.361Z,75.90
2019-04-13T09:46:07.643Z,77.30
2019-04-13T09:51:12.563Z,76.80
2019-04-13T09:56:16.403Z,72.30
2019-04-13T10:01:20.255Z,73.10
2019-04-13T10:06:24.070Z,72.40
2019-04-13T10:11:33.849Z,65.60
2019-04-13T10:16:56.856Z,67.00
2019-04-13T10:22:00.628Z,65.50
2019-04-13T10:27:05.272Z,62.20
2019-04-13T10:32:09.203Z,49.60
2019-04-13T10:37:13.137Z,55.50
2019-04-13T10:42:17.120Z,59.40
2019-04-13T10:47:29.194Z,58.00
2019-04-13T10:52:33.168Z,57.20
2019-04-13T10:57:37.277Z,67.20
2019-04-13T11:02:40.976Z,72.10
2019-04-13T11:07:45.685Z,65.30
2019-04-13T11:12:49.900Z,65.00
2019-04-13T11:17:53.745Z,65.10
2019-04-13T11:22:59.630Z,68.30
2019-04-13T11:28:07.339Z,66.90
2019-04-13T11:33:08.673Z,61.10
2019-04-13T11:38:12.496Z,55.10
2019-04-13T11:43:33.911Z,52.80
2019-04-13T11:48:49.263Z,56.30
2019-04-13T11:53:54.198Z,58.70
2019-04-13T11:58:58.712Z,59.80
2019-04-13T12:04:27.141Z,60.30
2019-04-13T12:09:50.854Z,60.30
2019-04-13T12:15:15.551Z,60.70
2019-04-13T12:20:27.706Z,67.50
2019-04-13T12:25:31.773Z,64.50
2019-04-13T12:30:37.203Z,70.20
2019-04-13T12:35:41.019Z,70.00
2019-04-13T12:40:52.444Z,75.20
2019-04-13T12:45:56.230Z,77.00
2019-04-13T12:51:00.062Z,79.40
2019-04-13T12:56:04.055Z,77.20
2019-04-13T13:01:33.987Z,77.90
2019-04-13T13:06:37.895Z,76.50
2019-04-13T13:11:43.641Z,75.60
2019-04-13T13:16:47.263Z,75.80
2019-04-13T13:21:51.575Z,76.60
2019-04-13T13:26:55.540Z,75.80
2019-04-13T13:31:59.544Z,75.10
2019-04-13T13:37:04.938Z,73.70
2019-04-13T13:42:08.796Z,74.30
2019-04-13T13:47:12.519Z,74.10
2019-04-13T13:52:16.259Z,74.70
2019-04-13T13:57:20.972Z,74.30
2019-04-13T14:02:29.198Z,72.90
2019-04-13T14:07:34.227Z,75.90
2019-04-13T14:12:38.040Z,73.80
2019-04-13T14:17:41.946Z,74.50
2019-04-13T14:22:45.746Z,72.50
2019-04-13T14:27:50.450Z,73.60
2019-04-13T14:32:54.222Z,75.50
2019-04-13T14:37:58.049Z,74.10
2019-04-13T14:43:01.833Z,72.10
2019-04-13T14:48:06.675Z,74.60
2019-04-13T14:53:14.798Z,72.60
2019-04-13T14:58:17.199Z,73.60
2019-04-13T15:03:21.137Z,72.40
2019-04-13T15:08:24.931Z,81.30
2019-04-13T15:13:29.581Z,82.80
2019-04-13T15:18:39.165Z,81.70
2019-04-13T15:23:44.551Z,80.90
2019-04-13T15:28:49.482Z,82.20
2019-04-13T15:33:56.400Z,82.10
2019-04-13T15:39:02.592Z,81.60
2019-04-13T15:44:07.956Z,82.60
2019-04-13T15:49:11.152Z,81.80
2019-04-13T15:54:14.959Z,82.70
2019-04-13T15:59:20.052Z,80.90
2019-04-13T16:04:24.307Z,81.10
2019-04-13T16:09:57.576Z,81.80
2019-04-13T16:15:01.514Z,82.40
2019-04-13T16:20:05.913Z,82.00
2019-04-13T16:25:09.990Z,82.20
2019-04-13T16:30:34.834Z,83.90
2019-04-13T16:36:06.727Z,83.50
2019-04-13T16:41:10.884Z,85.60
2019-04-13T16:46:28.589Z,85.60
2019-04-13T16:51:52.130Z,86.50
2019-04-13T16:57:06.539Z,87.10
2019-04-13T17:02:31.623Z,87.30
2019-04-13T17:07:36.299Z,87.30
2019-04-13T17:12:43.190Z,87.50
2019-04-13T17:17:45.578Z,86.80
2019-04-13T17:23:11.167Z,87.60
2019-04-13T17:28:35.072Z,87.90
2019-04-13T17:33:46.348Z,88.60
2019-04-13T17:38:50.141Z,89.60
2019-04-13T17:44:02.183Z,89.80
2019-04-13T17:49:30.077Z,90.00
2019-04-13T17:54:42.316Z,89.70
2019-04-13T18:00:04.108Z,89.90
2019-04-13T18:05:25.807Z,90.10
2019-04-13T18:10:41.963Z,90.50
2019-04-13T18:15:55.362Z,90.50
2019-04-13T18:20:59.441Z,90.80
2019-04-13T18:26:04.364Z,91.00
2019-04-13T18:31:08.519Z,90.70
2019-04-13T18:36:13.391Z,91.10
2019-04-13T18:41:18.571Z,91.30
2019-04-13T18:46:24.034Z,91.20
2019-04-13T18:51:29.097Z,91.60
2019-04-13T18:56:33.286Z,92.00
2019-04-13T19:01:37.105Z,91.90
2019-04-13T19:06:40.912Z,91.90
2019-04-13T19:11:44.818Z,91.90
2019-04-13T19:16:48.671Z,92.10
2019-04-13T19:21:52.417Z,92.60
2019-04-13T19:26:56.197Z,92.90
2019-04-13T19:32:00.551Z,93.30
2019-04-13T19:37:04.314Z,93.70
2019-04-13T19:42:08.111Z,93.70
2019-04-13T19:47:12.106Z,94.10
2019-04-13T19:52:31.616Z,94.30
2019-04-13T19:57:35.344Z,94.50
2019-04-13T20:02:39.366Z,94.60
2019-04-13T20:07:43.155Z,94.80
2019-04-13T20:12:46.961Z,95.10
2019-04-13T20:17:50.858Z,95.10
2019-04-13T20:22:54.607Z,95.30
2019-04-13T20:27:58.493Z,95.00
2019-04-13T20:33:02.493Z,94.70
2019-04-13T20:38:06.568Z,94.60
2019-04-13T20:43:11.756Z,94.50
2019-04-13T20:48:16.132Z,94.80
2019-04-13T20:53:20.003Z,94.60
2019-04-13T20:58:25.065Z,94.90
2019-04-13T21:03:29.489Z,94.50
2019-04-13T21:08:34.520Z,94.80
2019-04-13T21:13:38.730Z,95.10
2019-04-13T21:18:42.856Z,94.90
2019-04-13T21:23:47.377Z,94.90
2019-04-13T21:28:51.527Z,94.50
2019-04-13T21:33:56.175Z,94.20
2019-04-13T21:39:00.590Z,94.40
2019-04-13T21:44:15.636Z,94.30
2019-04-13T21:49:10.024Z,94.20
2019-04-13T21:54:19.012Z,94.30
2019-04-13T21:59:23.967Z,94.10
2019-04-13T22:04:28.418Z,93.70
2019-04-13T22:09:32.697Z,93.70
2019-04-13T22:14:46.359Z,94.00
2019-04-13T22:19:44.000Z,93.70
2019-04-13T22:24:48.425Z,94.10
2019-04-13T22:29:55.252Z,93.60
2019-04-13T22:35:04.748Z,93.60
2019-04-13T22:40:08.679Z,93.50
2019-04-13T22:45:15.230Z,93.40
2019-04-13T22:50:28.446Z,93.30
2019-04-13T22:55:37.630Z,93.00
2019-04-13T23:00:54.176Z,93.20
2019-04-13T23:05:58.910Z,93.10
2019-04-13T23:11:03.924Z,92.80
2019-04-13T23:16:08.496Z,93.10
2019-04-13T23:21:13.635Z,93.10
2019-04-13T23:26:17.550Z,93.40
2019-04-13T23:31:21.558Z,93.80
2019-04-13T23:36:26.727Z,93.90
2019-04-13T23:41:30.604Z,94.20
2019-04-13T23:46:35.031Z,94.30
2019-04-13T23:51:39.992Z,94.40
2019-04-13T23:57:03.176Z,94.60
